createdAt,value
2022-10-22T00:01:16.905Z,17.15
2022-10-22T00:03:43.525Z,17.25
2022-10-22T00:06:10.147Z,17.28
2022-10-22T00:08:38.580Z,17.05
2022-10-22T00:11:10.782Z,17.01
2022-10-22T00:13:37.560Z,17.30
2022-10-22T00:16:04.637Z,17.13
2022-10-22T00:18:31.386Z,17.06
2022-10-22T00:20:58.240Z,17.16
2022-10-22T00:23:24.835Z,17.14
2022-10-22T00:25:53.847Z,16.89
2022-10-22T00:28:20.642Z,16.67
2022-10-22T00:30:47.564Z,16.69
2022-10-22T00:33:14.236Z,16.38
2022-10-22T00:35:40.833Z,16.46
2022-10-22T00:38:07.546Z,16.46
2022-10-22T00:40:34.224Z,16.35
2022-10-22T00:43:02.210Z,16.54
2022-10-22T00:45:29.375Z,16.76
2022-10-22T00:48:00.829Z,16.98
2022-10-22T00:50:32.245Z,16.58
2022-10-22T00:52:59.284Z,16.37
2022-10-22T00:55:27.832Z,16.56
2022-10-22T00:57:56.418Z,16.64
2022-10-22T01:00:25.105Z,16.82
2022-10-22T01:02:53.436Z,16.93
2022-10-22T01:05:20.964Z,16.81
2022-10-22T01:07:49.537Z,16.75
2022-10-22T01:10:26.436Z,16.84
2022-10-22T01:13:01.864Z,17.04
2022-10-22T01:15:37.535Z,17.23
2022-10-22T01:18:08.133Z,17.37
2022-10-22T01:20:58.033Z,17.39
2022-10-22T01:23:42.785Z,17.41
2022-10-22T01:26:20.795Z,17.45
2022-10-22T01:28:58.653Z,17.35
2022-10-22T01:31:29.397Z,17.60
2022-10-22T01:33:58.477Z,17.62
2022-10-22T01:36:25.911Z,17.49
2022-10-22T01:38:54.068Z,17.41
2022-10-22T01:41:20.723Z,17.42
2022-10-22T01:43:47.302Z,17.35
2022-10-22T01:46:18.245Z,17.32
2022-10-22T01:48:55.131Z,17.24
2022-10-22T01:51:36.770Z,17.20
2022-10-22T01:54:09.980Z,17.23
2022-10-22T01:56:53.523Z,17.41
2022-10-22T01:59:32.617Z,17.34
2022-10-22T02:02:10.628Z,17.29
2022-10-22T02:04:44.946Z,17.21
2022-10-22T02:07:15.132Z,17.25
2022-10-22T02:09:43.734Z,16.96
2022-10-22T02:12:12.845Z,17.03
2022-10-22T02:14:43.455Z,17.22
2022-10-22T02:17:16.823Z,16.98
2022-10-22T02:19:50.251Z,17.18
2022-10-22T02:22:17.633Z,17.13
2022-10-22T02:24:44.759Z,17.01
2022-10-22T02:27:25.761Z,16.87
2022-10-22T02:29:58.926Z,16.78
2022-10-22T02:32:32.748Z,16.83
2022-10-22T02:35:00.729Z,16.76
2022-10-22T02:37:28.309Z,16.80
2022-10-22T02:39:55.337Z,16.94
2022-10-22T02:42:23.701Z,17.03
2022-10-22T02:44:50.344Z,17.04
2022-10-22T02:47:17.018Z,17.17
2022-10-22T02:49:45.051Z,17.16
2022-10-22T02:52:11.668Z,17.13
2022-10-22T02:54:38.323Z,17.14
2022-10-22T02:57:05.024Z,17.13
2022-10-22T02:59:31.628Z,17.04
2022-10-22T03:01:58.318Z,17.18
2022-10-22T03:04:24.986Z,16.98
2022-10-22T03:06:53.077Z,17.05
2022-10-22T03:09:22.636Z,16.84
2022-10-22T03:11:51.676Z,16.74
2022-10-22T03:14:18.584Z,17.01
2022-10-22T03:16:45.269Z,16.70
2022-10-22T03:19:11.865Z,16.88
2022-10-22T03:21:42.369Z,16.73
2022-10-22T03:24:13.676Z,16.58
2022-10-22T03:26:41.955Z,16.55
2022-10-22T03:29:10.290Z,16.67
2022-10-22T03:31:37.039Z,16.41
2022-10-22T03:34:03.656Z,16.38
2022-10-22T03:36:31.376Z,16.36
2022-10-22T03:38:59.048Z,16.26
2022-10-22T03:41:27.672Z,16.50
2022-10-22T03:43:55.061Z,16.25
2022-10-22T03:46:21.700Z,16.43
2022-10-22T03:48:48.300Z,16.60
2022-10-22T03:51:15.048Z,16.60
2022-10-22T03:53:41.692Z,16.61
2022-10-22T03:56:09.216Z,16.60
2022-10-22T03:58:37.683Z,16.44
2022-10-22T04:01:05.430Z,16.46
2022-10-22T04:03:32.167Z,16.65
2022-10-22T04:06:01.809Z,16.49
2022-10-22T04:08:28.577Z,16.67
2022-10-22T04:10:55.143Z,16.71
2022-10-22T04:13:21.800Z,16.69
2022-10-22T04:15:49.835Z,16.60
2022-10-22T04:18:16.493Z,16.38
2022-10-22T04:20:43.195Z,16.61
2022-10-22T04:23:09.779Z,16.72
2022-10-22T04:25:36.410Z,16.59
2022-10-22T04:28:03.148Z,16.76
2022-10-22T04:30:29.748Z,16.75
2022-10-22T04:32:57.757Z,16.82
2022-10-22T04:37:51.867Z,16.54
2022-10-22T04:40:18.628Z,16.74
2022-10-22T04:42:45.241Z,16.71
2022-10-22T04:45:11.889Z,16.64
2022-10-22T04:47:39.064Z,16.91
2022-10-22T04:50:08.333Z,16.86
2022-10-22T04:52:35.056Z,16.99
2022-10-22T04:55:01.674Z,16.77
2022-10-22T04:57:29.599Z,16.54
2022-10-22T04:59:56.196Z,16.36
2022-10-22T05:02:22.867Z,16.52
2022-10-22T05:04:49.611Z,16.25
2022-10-22T05:07:17.797Z,16.11
2022-10-22T05:09:44.515Z,16.14
2022-10-22T05:12:11.144Z,15.94
2022-10-22T05:14:41.405Z,16.00
2022-10-22T05:17:10.696Z,15.92
2022-10-22T05:19:37.516Z,15.89
2022-10-22T05:22:05.477Z,15.95
2022-10-22T05:24:34.361Z,16.20
2022-10-22T05:27:01.242Z,15.83
2022-10-22T05:29:28.066Z,15.75
2022-10-22T05:31:55.100Z,15.59
2022-10-22T05:34:21.854Z,15.22
2022-10-22T05:36:48.511Z,15.51
2022-10-22T05:39:15.235Z,15.52
2022-10-22T05:41:43.247Z,15.35
2022-10-22T05:44:12.097Z,15.50
2022-10-22T05:46:38.725Z,15.51
2022-10-22T05:49:06.820Z,15.41
2022-10-22T05:51:35.766Z,15.35
2022-10-22T05:54:08.490Z,15.40
2022-10-22T05:56:35.652Z,15.04
2022-10-22T06:01:35.660Z,15.47
2022-10-22T06:04:07.392Z,15.31
2022-10-22T06:06:36.201Z,15.18
2022-10-22T06:09:06.608Z,14.98
2022-10-22T06:11:35.174Z,15.46
2022-10-22T06:14:03.718Z,15.25
2022-10-22T06:16:31.594Z,15.09
2022-10-22T06:18:59.536Z,15.25
2022-10-22T06:21:26.268Z,15.26
2022-10-22T06:23:56.141Z,14.82
2022-10-22T06:26:27.875Z,15.12
2022-10-22T06:28:55.166Z,15.22
2022-10-22T06:31:23.612Z,15.08
2022-10-22T06:33:50.321Z,15.28
2022-10-22T06:36:19.743Z,15.10
2022-10-22T06:38:46.550Z,15.32
2022-10-22T06:41:15.707Z,14.96
2022-10-22T06:43:46.726Z,15.38
2022-10-22T06:46:17.605Z,15.37
2022-10-22T06:48:52.087Z,15.49
2022-10-22T06:51:19.639Z,15.41
2022-10-22T06:53:46.509Z,15.61
2022-10-22T06:56:16.136Z,15.98
2022-10-22T06:58:46.458Z,16.21
2022-10-22T07:01:15.697Z,16.31
2022-10-22T07:03:42.985Z,16.44
2022-10-22T07:06:12.658Z,16.70
2022-10-22T07:08:42.499Z,16.85
2022-10-22T07:11:11.577Z,16.86
2022-10-22T07:13:38.751Z,17.13
2022-10-22T07:16:07.132Z,17.20
2022-10-22T07:18:35.071Z,17.40
2022-10-22T07:21:05.597Z,17.31
2022-10-22T07:23:33.708Z,17.62
2022-10-22T07:26:00.768Z,17.77
2022-10-22T07:28:27.368Z,17.93
2022-10-22T07:30:54.143Z,17.99
2022-10-22T07:33:21.057Z,17.91
2022-10-22T07:35:47.798Z,18.12
2022-10-22T07:38:14.613Z,17.86
2022-10-22T07:40:42.652Z,18.10
2022-10-22T07:43:09.339Z,18.26
2022-10-22T07:45:36.014Z,18.36
2022-10-22T07:48:02.837Z,18.37
2022-10-22T07:50:29.536Z,18.26
2022-10-22T07:52:58.444Z,18.24
2022-10-22T07:55:25.163Z,18.24
2022-10-22T07:57:53.285Z,18.27
2022-10-22T08:00:23.067Z,18.51
2022-10-22T08:02:52.025Z,18.70
2022-10-22T08:05:18.878Z,18.86
2022-10-22T08:07:45.610Z,19.00
2022-10-22T08:10:13.036Z,18.84
2022-10-22T08:12:40.783Z,18.91
2022-10-22T08:15:10.204Z,19.02
2022-10-22T08:17:37.059Z,19.33
2022-10-22T08:20:04.195Z,19.30
2022-10-22T08:22:30.805Z,19.56
2022-10-22T08:24:57.471Z,19.44
2022-10-22T08:27:24.129Z,19.49
2022-10-22T08:29:50.907Z,19.22
2022-10-22T08:32:19.001Z,19.39
2022-10-22T08:34:45.629Z,19.38
2022-10-22T08:37:12.273Z,19.41
2022-10-22T08:39:39.083Z,19.36
2022-10-22T08:42:17.624Z,19.49
2022-10-22T08:45:00.256Z,19.43
2022-10-22T08:47:47.303Z,19.48
2022-10-22T08:50:19.253Z,19.61
2022-10-22T08:52:53.731Z,19.54
2022-10-22T08:55:24.249Z,19.41
2022-10-22T08:57:59.824Z,19.66
2022-10-22T09:00:37.320Z,19.43
2022-10-22T09:03:27.692Z,19.48
2022-10-22T09:06:03.532Z,19.39
2022-10-22T09:08:30.241Z,19.19
2022-10-22T09:11:04.184Z,19.43
2022-10-22T09:13:30.897Z,19.27
2022-10-22T09:16:00.590Z,19.39
2022-10-22T09:18:39.368Z,19.38
2022-10-22T09:21:17.817Z,19.12
2022-10-22T09:23:54.513Z,18.98
2022-10-22T09:26:21.585Z,19.09
2022-10-22T09:28:51.073Z,19.32
2022-10-22T09:31:21.599Z,19.13
2022-10-22T09:33:54.921Z,19.08
2022-10-22T09:36:23.193Z,18.91
2022-10-22T09:38:53.247Z,18.94
2022-10-22T09:41:23.648Z,18.92
2022-10-22T09:43:50.334Z,19.18
2022-10-22T09:46:28.064Z,18.97
2022-10-22T09:49:06.710Z,18.84
2022-10-22T09:51:56.302Z,19.21
2022-10-22T09:54:38.314Z,19.30
2022-10-22T09:57:09.634Z,19.17
2022-10-22T09:59:41.512Z,19.09
2022-10-22T10:02:37.521Z,19.21
2022-10-22T10:05:30.609Z,19.77
2022-10-22T10:08:02.631Z,19.74
2022-10-22T10:10:41.051Z,19.84
2022-10-22T10:13:27.571Z,19.82
2022-10-22T10:15:59.241Z,19.87
2022-10-22T10:18:48.334Z,19.76
2022-10-22T10:21:30.904Z,19.62
2022-10-22T10:24:05.162Z,19.86
2022-10-22T10:26:37.767Z,19.43
2022-10-22T10:29:24.314Z,19.62
2022-10-22T10:32:06.756Z,19.55
2022-10-22T10:34:43.803Z,20.07
2022-10-22T10:37:21.502Z,20.15
2022-10-22T10:40:26.369Z,20.12
2022-10-22T10:42:58.896Z,20.34
2022-10-22T10:45:33.266Z,20.25
2022-10-22T10:48:41.119Z,20.61
2022-10-22T10:51:18.709Z,20.82
2022-10-22T10:54:03.856Z,21.08
2022-10-22T10:56:39.931Z,21.33
2022-10-22T10:59:16.620Z,21.16
2022-10-22T11:01:58.084Z,21.47
2022-10-22T11:04:45.853Z,21.10
2022-10-22T11:07:30.203Z,21.39
2022-10-22T11:10:08.740Z,21.56
2022-10-22T11:12:43.422Z,21.65
2022-10-22T11:15:22.953Z,21.39
2022-10-22T11:17:54.245Z,21.06
2022-10-22T11:20:25.477Z,21.21
2022-10-22T11:23:18.280Z,21.36
2022-10-22T11:25:47.101Z,21.31
2022-10-22T11:28:20.416Z,21.31
2022-10-22T11:30:54.372Z,21.74
2022-10-22T11:33:26.702Z,21.70
2022-10-22T11:35:53.412Z,21.75
2022-10-22T11:38:24.301Z,21.52
2022-10-22T11:40:57.342Z,21.81
2022-10-22T11:43:29.794Z,21.90
2022-10-22T11:46:08.371Z,21.83
2022-10-22T11:48:37.992Z,21.79
2022-10-22T11:51:37.047Z,21.92
2022-10-22T11:54:23.549Z,21.92
2022-10-22T11:56:52.993Z,21.86
2022-10-22T11:59:39.072Z,21.78
2022-10-22T12:02:24.215Z,21.69
2022-10-22T12:04:50.913Z,21.93
2022-10-22T12:07:35.313Z,21.65
2022-10-22T12:10:05.996Z,21.34
2022-10-22T12:12:38.737Z,21.09
2022-10-22T12:15:23.196Z,20.88
2022-10-22T12:17:50.292Z,20.98
2022-10-22T12:20:17.372Z,20.92
2022-10-22T12:22:46.572Z,20.88
2022-10-22T12:25:17.198Z,21.02
2022-10-22T12:27:44.214Z,20.81
2022-10-22T12:30:18.793Z,20.90
2022-10-22T12:32:45.866Z,21.02
2022-10-22T12:35:19.141Z,20.90
2022-10-22T12:37:49.969Z,21.11
2022-10-22T12:40:19.080Z,21.21
2022-10-22T12:42:51.536Z,21.34
2022-10-22T12:45:18.281Z,21.04
2022-10-22T12:47:50.063Z,20.91
2022-10-22T12:50:19.960Z,21.10
2022-10-22T12:52:48.759Z,21.19
2022-10-22T12:55:17.038Z,21.09
2022-10-22T12:57:46.156Z,21.11
2022-10-22T13:00:25.633Z,21.53
2022-10-22T13:02:52.798Z,21.59
2022-10-22T13:05:25.305Z,21.65
2022-10-22T13:07:57.859Z,21.57
2022-10-22T13:10:26.378Z,21.31
2022-10-22T13:12:56.067Z,21.39
2022-10-22T13:15:35.601Z,21.28
2022-10-22T13:18:16.152Z,21.36
2022-10-22T13:20:54.497Z,21.07
2022-10-22T13:23:24.717Z,21.30
2022-10-22T13:26:03.596Z,20.99
2022-10-22T13:28:32.082Z,21.33
2022-10-22T13:31:00.793Z,21.13
2022-10-22T13:33:30.403Z,21.15
2022-10-22T13:35:57.206Z,21.18
2022-10-22T13:38:26.952Z,20.94
2022-10-22T13:40:54.567Z,21.16
2022-10-22T13:43:22.501Z,21.09
2022-10-22T13:45:52.920Z,20.84
2022-10-22T13:48:27.245Z,20.94
2022-10-22T13:50:56.069Z,20.63
2022-10-22T13:53:25.962Z,20.78
2022-10-22T13:56:16.617Z,20.66
2022-10-22T13:58:52.039Z,20.45
2022-10-22T14:01:23.696Z,20.55
2022-10-22T14:03:53.284Z,20.58
2022-10-22T14:06:22.147Z,20.29
2022-10-22T14:08:56.896Z,20.36
2022-10-22T14:11:30.309Z,20.23
2022-10-22T14:14:01.825Z,20.51
2022-10-22T14:16:29.178Z,19.75
2022-10-22T14:18:58.275Z,18.29
2022-10-22T14:21:25.287Z,18.32
2022-10-22T14:23:58.699Z,17.28
